Aeroporto :
LOGIN :

Iscrizione | Disclaimer

   EN    FR    IT 

 










Sommario :    VFR   VFR Marginale   IFR   IFR Intensivo   IFR Molto Intensivo
Visibilità : 
Base nubi : 
>= 8 km
>= 3000ft
5 / 8 km
1000 / 3000 ft
1500m / 5 km
500 / 1000 ft
800 / 1500m
200 / 500 ft
< 800m
< 200 ft
Simboli :   Temporali  Nebbia  Neve Forte  Precipitazioni Forti  Vento > 20 kt
SIGMETs :   Varie  Temporali  Ghiacco  Turbolenza  Onda orograficha  Ceneri Vulcaniche






- Altitudine del aeroporto : 76 ft
- Codice IATA : KID


ESMK - Kristianstad

ULTIMO METAR :
  • 021450Z AUTO 23021G35KT 9999 FEW034/// OVC046/// 09/03 Q0996

METARs OBSOLETI :
  • 021420Z AUTO 24021G33KT 9999 FEW031/// OVC046/// 09/02 Q0996
  • 021350Z AUTO 23017G29KT 9999 FEW031/// OVC048/// 09/03 Q0997
  • 021320Z 23014G25KT 9999 BKN028 BKN048 09/03 Q0997
  • 021250Z 22017G29KT 9999 BKN028 BKN042 08/03 Q0998
  • 021220Z 23015KT 9999 FEW028 BKN037 BKN049 09/03 Q0999

Previsioni scadute.



MetMap, La meteo Aeronautica in un colpo d'occhio ! - Copyright ORBIFLY Dicembre 2007 - Disclaimer

ORBIFLY MET'MAP TEAM :

Programmazione e sviluppo : Alexandra Zaïnal
Concezione : Baudouin d'Aumeries
Aiuto per la programmazione : Marc-Olivier Méhu
Supporto tecnico e logistico : Manuel Goepfert
Aiuto per la traduzione : Arnaldo La Scala

Contatto : metmap@orbifly.com




FONTI E CREDITI :

   NOAA